sensor_id;sensor_type;location;lat;lon;timestamp;P1;durP1;ratioP1;P2;durP2;ratioP2
22176;SDS011;11254;50.098;8.726;2024-03-23T02:15:12;24.17;;;13.80;;
22176;SDS011;11254;50.098;8.726;2024-03-23T02:17:40;26.20;;;14.20;;
22176;SDS011;11254;50.098;8.726;2024-03-23T02:20:07;30.10;;;13.63;;
22176;SDS011;11254;50.098;8.726;2024-03-23T02:22:38;23.60;;;14.13;;
22176;SDS011;11254;50.098;8.726;2024-03-23T02:25:06;26.42;;;14.68;;
22176;SDS011;11254;50.098;8.726;2024-03-23T02:27:34;29.27;;;15.60;;
22176;SDS011;11254;50.098;8.726;2024-03-23T02:30:01;26.55;;;13.95;;
22176;SDS011;11254;50.098;8.726;2024-03-23T02:32:30;26.50;;;14.85;;
22176;SDS011;11254;50.098;8.726;2024-03-23T02:34:56;26.80;;;13.60;;
22176;SDS011;11254;50.098;8.726;2024-03-23T02:37:24;25.55;;;14.30;;
22176;SDS011;11254;50.098;8.726;2024-03-23T02:39:50;25.13;;;14.07;;
22176;SDS011;11254;50.098;8.726;2024-03-23T02:42:19;26.58;;;14.45;;
22176;SDS011;11254;50.098;8.726;2024-03-23T02:44:46;30.40;;;15.38;;
22176;SDS011;11254;50.098;8.726;2024-03-23T02:47:14;26.13;;;15.30;;
22176;SDS011;11254;50.098;8.726;2024-03-23T02:49:41;26.70;;;14.52;;
22176;SDS011;11254;50.098;8.726;2024-03-23T02:52:08;27.90;;;14.85;;
22176;SDS011;11254;50.098;8.726;2024-03-23T02:54:35;28.45;;;15.60;;
22176;SDS011;11254;50.098;8.726;2024-03-23T02:57:03;28.15;;;15.90;;
22176;SDS011;11254;50.098;8.726;2024-03-23T02:59:31;30.92;;;15.18;;
22176;SDS011;11254;50.098;8.726;2024-03-23T03:01:59;31.02;;;15.82;;
22176;SDS011;11254;50.098;8.726;2024-03-23T03:04:27;32.95;;;17.77;;
22176;SDS011;11254;50.098;8.726;2024-03-23T03:06:54;38.25;;;17.55;;
22176;SDS011;11254;50.098;8.726;2024-03-23T03:09:21;32.88;;;17.10;;
22176;SDS011;11254;50.098;8.726;2024-03-23T03:11:48;36.05;;;17.48;;
22176;SDS011;11254;50.098;8.726;2024-03-23T03:14:15;36.80;;;17.92;;
22176;SDS011;11254;50.098;8.726;2024-03-23T03:16:44;36.88;;;17.42;;
22176;SDS011;11254;50.098;8.726;2024-03-23T03:19:11;37.95;;;17.70;;
22176;SDS011;11254;50.098;8.726;2024-03-23T03:21:44;33.97;;;17.00;;
22176;SDS011;11254;50.098;8.726;2024-03-23T03:24:11;34.88;;;17.25;;
22176;SDS011;11254;50.098;8.726;2024-03-23T03:26:39;32.10;;;16.25;;
22176;SDS011;11254;50.098;8.726;2024-03-23T03:29:10;34.90;;;17.40;;
22176;SDS011;11254;50.098;8.726;2024-03-23T03:31:38;37.17;;;18.60;;
22176;SDS011;11254;50.098;8.726;2024-03-23T03:34:10;37.55;;;18.15;;
22176;SDS011;11254;50.098;8.726;2024-03-23T03:36:38;32.88;;;16.95;;
22176;SDS011;11254;50.098;8.726;2024-03-23T03:39:05;37.03;;;17.95;;
22176;SDS011;11254;50.098;8.726;2024-03-23T03:41:34;33.53;;;16.65;;
22176;SDS011;11254;50.098;8.726;2024-03-23T03:44:01;33.65;;;16.90;;
22176;SDS011;11254;50.098;8.726;2024-03-23T03:46:29;30.90;;;16.25;;
22176;SDS011;11254;50.098;8.726;2024-03-23T03:48:59;28.95;;;15.35;;
22176;SDS011;11254;50.098;8.726;2024-03-23T03:51:29;29.02;;;15.65;;
22176;SDS011;11254;50.098;8.726;2024-03-23T03:53:56;27.63;;;15.65;;
22176;SDS011;11254;50.098;8.726;2024-03-23T03:56:26;31.13;;;15.00;;
22176;SDS011;11254;50.098;8.726;2024-03-23T03:58:53;26.15;;;14.45;;
22176;SDS011;11254;50.098;8.726;2024-03-23T04:01:23;28.25;;;15.05;;
22176;SDS011;11254;50.098;8.726;2024-03-23T04:03:49;27.55;;;14.88;;
22176;SDS011;11254;50.098;8.726;2024-03-23T04:06:20;30.33;;;15.73;;
22176;SDS011;11254;50.098;8.726;2024-03-23T04:08:48;31.13;;;15.55;;
22176;SDS011;11254;50.098;8.726;2024-03-23T04:11:19;33.13;;;15.30;;
22176;SDS011;11254;50.098;8.726;2024-03-23T04:13:48;30.92;;;15.23;;
22176;SDS011;11254;50.098;8.726;2024-03-23T04:16:33;35.47;;;16.48;;
22176;SDS011;11254;50.098;8.726;2024-03-23T04:19:14;32.65;;;16.40;;
22176;SDS011;11254;50.098;8.726;2024-03-23T04:21:42;31.95;;;16.50;;
22176;SDS011;11254;50.098;8.726;2024-03-23T04:28:35;25.63;;;12.07;;
22176;SDS011;11254;50.098;8.726;2024-03-23T04:40:22;10.63;;;4.13;;
22176;SDS011;11254;50.098;8.726;2024-03-23T04:42:52;7.00;;;3.00;;
22176;SDS011;11254;50.098;8.726;2024-03-23T04:45:23;6.00;;;2.55;;
22176;SDS011;11254;50.098;8.726;2024-03-23T04:47:54;8.90;;;3.10;;
22176;SDS011;11254;50.098;8.726;2024-03-23T04:50:29;5.20;;;2.20;;
22176;SDS011;11254;50.098;8.726;2024-03-23T04:53:12;5.07;;;1.80;;
22176;SDS011;11254;50.098;8.726;2024-03-23T04:55:54;3.28;;;1.33;;
22176;SDS011;11254;50.098;8.726;2024-03-23T04:58:32;4.40;;;1.48;;
22176;SDS011;11254;50.098;8.726;2024-03-23T05:01:00;3.65;;;1.40;;
22176;SDS011;11254;50.098;8.726;2024-03-23T05:03:28;3.00;;;0.95;;
22176;SDS011;11254;50.098;8.726;2024-03-23T05:05:55;4.47;;;0.70;;
22176;SDS011;11254;50.098;8.726;2024-03-23T05:08:23;1.63;;;0.60;;
22176;SDS011;11254;50.098;8.726;2024-03-23T05:10:49;1.55;;;0.50;;
22176;SDS011;11254;50.098;8.726;2024-03-23T05:13:20;1.50;;;0.50;;
22176;SDS011;11254;50.098;8.726;2024-03-23T05:15:50;2.45;;;0.60;;
22176;SDS011;11254;50.098;8.726;2024-03-23T05:18:19;1.95;;;0.70;;
22176;SDS011;11254;50.098;8.726;2024-03-23T05:20:47;1.98;;;0.70;;
22176;SDS011;11254;50.098;8.726;2024-03-23T05:23:14;3.38;;;0.70;;
22176;SDS011;11254;50.098;8.726;2024-03-23T05:25:42;2.63;;;1.00;;
22176;SDS011;11254;50.098;8.726;2024-03-23T05:28:08;2.42;;;0.93;;
22176;SDS011;11254;50.098;8.726;2024-03-23T05:30:36;2.13;;;0.80;;
22176;SDS011;11254;50.098;8.726;2024-03-23T05:33:02;2.78;;;1.05;;
22176;SDS011;11254;50.098;8.726;2024-03-23T05:35:32;3.25;;;1.20;;
22176;SDS011;11254;50.098;8.726;2024-03-23T05:37:59;2.88;;;1.15;;
22176;SDS011;11254;50.098;8.726;2024-03-23T06:14:08;5.57;;;1.70;;
22176;SDS011;11254;50.098;8.726;2024-03-23T06:16:54;3.10;;;1.30;;
22176;SDS011;11254;50.098;8.726;2024-03-23T06:19:36;3.70;;;1.40;;
22176;SDS011;11254;50.098;8.726;2024-03-23T06:22:27;3.28;;;1.30;;
22176;SDS011;11254;50.098;8.726;2024-03-23T06:25:31;2.85;;;1.00;;
22176;SDS011;11254;50.098;8.726;2024-03-23T06:28:20;2.28;;;0.85;;
22176;SDS011;11254;50.098;8.726;2024-03-23T06:30:54;1.90;;;0.63;;
22176;SDS011;11254;50.098;8.726;2024-03-23T06:33:35;2.35;;;0.82;;
22176;SDS011;11254;50.098;8.726;2024-03-23T06:36:18;0.80;;;0.30;;
22176;SDS011;11254;50.098;8.726;2024-03-23T06:38:49;1.60;;;0.30;;
22176;SDS011;11254;50.098;8.726;2024-03-23T06:41:18;1.33;;;0.40;;
22176;SDS011;11254;50.098;8.726;2024-03-23T06:44:01;0.35;;;0.20;;
22176;SDS011;11254;50.098;8.726;2024-03-23T06:46:44;1.00;;;0.40;;
22176;SDS011;11254;50.098;8.726;2024-03-23T06:49:22;0.77;;;0.30;;
22176;SDS011;11254;50.098;8.726;2024-03-23T06:51:49;2.00;;;0.60;;
22176;SDS011;11254;50.098;8.726;2024-03-23T06:54:19;3.28;;;0.40;;
22176;SDS011;11254;50.098;8.726;2024-03-23T06:56:55;1.75;;;0.50;;
22176;SDS011;11254;50.098;8.726;2024-03-23T06:59:35;0.90;;;0.30;;
22176;SDS011;11254;50.098;8.726;2024-03-23T07:05:57;1.20;;;0.40;;
22176;SDS011;11254;50.098;8.726;2024-03-23T07:08:27;1.35;;;0.40;;
22176;SDS011;11254;50.098;8.726;2024-03-23T07:14:47;1.10;;;0.30;;
22176;SDS011;11254;50.098;8.726;2024-03-23T07:17:34;1.58;;;0.50;;
22176;SDS011;11254;50.098;8.726;2024-03-23T07:21:01;2.25;;;0.50;;
22176;SDS011;11254;50.098;8.726;2024-03-23T07:23:57;1.30;;;0.50;;
22176;SDS011;11254;50.098;8.726;2024-03-23T07:26:45;16.98;;;1.30;;
22176;SDS011;11254;50.098;8.726;2024-03-23T07:29:34;2.38;;;0.80;;
22176;SDS011;11254;50.098;8.726;2024-03-23T07:32:20;3.42;;;0.68;;
22176;SDS011;11254;50.098;8.726;2024-03-23T07:35:20;2.50;;;0.88;;
22176;SDS011;11254;50.098;8.726;2024-03-23T07:37:59;17.08;;;7.93;;
22176;SDS011;11254;50.098;8.726;2024-03-23T07:40:34;4.25;;;1.20;;
22176;SDS011;11254;50.098;8.726;2024-03-23T07:43:04;5.05;;;1.10;;
22176;SDS011;11254;50.098;8.726;2024-03-23T07:45:30;3.75;;;1.00;;
22176;SDS011;11254;50.098;8.726;2024-03-23T07:47:59;4.85;;;1.00;;
22176;SDS011;11254;50.098;8.726;2024-03-23T07:50:27;3.85;;;1.05;;
22176;SDS011;11254;50.098;8.726;2024-03-23T07:52:55;6.32;;;1.88;;
22176;SDS011;11254;50.098;8.726;2024-03-23T07:55:23;4.65;;;1.40;;
22176;SDS011;11254;50.098;8.726;2024-03-23T07:57:57;4.55;;;1.20;;
22176;SDS011;11254;50.098;8.726;2024-03-23T08:00:25;6.05;;;1.48;;
22176;SDS011;11254;50.098;8.726;2024-03-23T08:02:52;4.90;;;1.25;;
22176;SDS011;11254;50.098;8.726;2024-03-23T08:05:20;7.05;;;1.70;;
22176;SDS011;11254;50.098;8.726;2024-03-23T08:07:50;6.25;;;1.50;;
22176;SDS011;11254;50.098;8.726;2024-03-23T08:10:16;6.28;;;1.85;;
22176;SDS011;11254;50.098;8.726;2024-03-23T08:12:47;4.65;;;1.48;;
22176;SDS011;11254;50.098;8.726;2024-03-23T08:15:15;6.28;;;1.60;;
22176;SDS011;11254;50.098;8.726;2024-03-23T08:17:43;7.18;;;2.08;;
22176;SDS011;11254;50.098;8.726;2024-03-23T08:20:13;6.65;;;2.90;;
22176;SDS011;11254;50.098;8.726;2024-03-23T08:22:41;6.85;;;2.60;;
22176;SDS011;11254;50.098;8.726;2024-03-23T08:25:08;8.00;;;3.00;;
22176;SDS011;11254;50.098;8.726;2024-03-23T08:27:39;9.30;;;3.22;;
22176;SDS011;11254;50.098;8.726;2024-03-23T08:30:11;11.18;;;3.30;;
22176;SDS011;11254;50.098;8.726;2024-03-23T08:32:48;9.60;;;2.78;;
22176;SDS011;11254;50.098;8.726;2024-03-23T08:35:15;6.40;;;3.10;;
22176;SDS011;11254;50.098;8.726;2024-03-23T08:37:43;9.10;;;2.97;;
22176;SDS011;11254;50.098;8.726;2024-03-23T08:40:10;6.05;;;2.95;;
22176;SDS011;11254;50.098;8.726;2024-03-23T08:42:38;9.05;;;3.47;;
22176;SDS011;11254;50.098;8.726;2024-03-23T08:45:05;8.07;;;3.45;;
22176;SDS011;11254;50.098;8.726;2024-03-23T08:47:35;7.15;;;3.22;;
22176;SDS011;11254;50.098;8.726;2024-03-23T08:50:02;8.35;;;3.20;;
22176;SDS011;11254;50.098;8.726;2024-03-23T08:52:30;8.05;;;2.85;;
22176;SDS011;11254;50.098;8.726;2024-03-23T08:54:57;6.22;;;3.30;;
22176;SDS011;11254;50.098;8.726;2024-03-23T08:57:25;7.35;;;2.90;;
22176;SDS011;11254;50.098;8.726;2024-03-23T08:59:53;7.22;;;3.05;;
22176;SDS011;11254;50.098;8.726;2024-03-23T09:02:20;6.68;;;2.60;;
22176;SDS011;11254;50.098;8.726;2024-03-23T09:04:48;7.25;;;2.97;;
22176;SDS011;11254;50.098;8.726;2024-03-23T09:07:17;8.07;;;2.63;;
22176;SDS011;11254;50.098;8.726;2024-03-23T09:10:12;9.90;;;2.72;;
22176;SDS011;11254;50.098;8.726;2024-03-23T09:12:43;6.32;;;2.50;;
22176;SDS011;11254;50.098;8.726;2024-03-23T09:15:10;7.25;;;3.10;;
22176;SDS011;11254;50.098;8.726;2024-03-23T09:17:38;21.65;;;12.30;;
22176;SDS011;11254;50.098;8.726;2024-03-23T09:20:07;8.60;;;3.67;;
22176;SDS011;11254;50.098;8.726;2024-03-23T09:22:35;8.15;;;3.97;;
22176;SDS011;11254;50.098;8.726;2024-03-23T09:25:02;9.38;;;3.47;;
22176;SDS011;11254;50.098;8.726;2024-03-23T09:27:32;9.13;;;3.40;;
22176;SDS011;11254;50.098;8.726;2024-03-23T09:29:58;7.07;;;2.95;;
22176;SDS011;11254;50.098;8.726;2024-03-23T09:32:27;11.73;;;4.25;;
22176;SDS011;11254;50.098;8.726;2024-03-23T09:34:54;10.07;;;3.90;;
22176;SDS011;11254;50.098;8.726;2024-03-23T09:37:23;11.65;;;3.83;;
22176;SDS011;11254;50.098;8.726;2024-03-23T09:39:53;12.00;;;2.83;;
22176;SDS011;11254;50.098;8.726;2024-03-23T09:42:20;9.52;;;3.67;;
22176;SDS011;11254;50.098;8.726;2024-03-23T09:44:51;13.30;;;4.78;;
22176;SDS011;11254;50.098;8.726;2024-03-23T09:47:21;8.05;;;3.20;;
22176;SDS011;11254;50.098;8.726;2024-03-23T09:49:48;11.38;;;4.35;;
22176;SDS011;11254;50.098;8.726;2024-03-23T09:52:16;9.80;;;3.85;;
22176;SDS011;11254;50.098;8.726;2024-03-23T09:54:44;7.20;;;2.58;;
22176;SDS011;11254;50.098;8.726;2024-03-23T09:57:12;10.95;;;3.22;;
22176;SDS011;11254;50.098;8.726;2024-03-23T09:59:38;7.25;;;2.80;;
22176;SDS011;11254;50.098;8.726;2024-03-23T10:02:07;8.75;;;2.80;;
22176;SDS011;11254;50.098;8.726;2024-03-23T10:04:36;8.25;;;2.70;;
22176;SDS011;11254;50.098;8.726;2024-03-23T10:07:10;8.70;;;4.45;;
22176;SDS011;11254;50.098;8.726;2024-03-23T10:09:37;11.38;;;2.80;;
22176;SDS011;11254;50.098;8.726;2024-03-23T10:12:10;10.02;;;3.75;;
22176;SDS011;11254;50.098;8.726;2024-03-23T10:14:38;8.93;;;2.55;;
22176;SDS011;11254;50.098;8.726;2024-03-23T10:17:12;7.43;;;2.30;;
22176;SDS011;11254;50.098;8.726;2024-03-23T10:19:39;7.35;;;2.42;;
22176;SDS011;11254;50.098;8.726;2024-03-23T10:22:08;6.13;;;2.10;;
22176;SDS011;11254;50.098;8.726;2024-03-23T10:24:35;11.73;;;2.20;;
22176;SDS011;11254;50.098;8.726;2024-03-23T10:27:18;5.95;;;1.98;;
22176;SDS011;11254;50.098;8.726;2024-03-23T10:29:46;9.93;;;2.28;;
22176;SDS011;11254;50.098;8.726;2024-03-23T10:32:15;9.90;;;2.47;;
22176;SDS011;11254;50.098;8.726;2024-03-23T10:34:43;5.88;;;2.10;;
22176;SDS011;11254;50.098;8.726;2024-03-23T10:37:19;7.85;;;1.83;;
22176;SDS011;11254;50.098;8.726;2024-03-23T10:39:52;8.38;;;1.50;;
22176;SDS011;11254;50.098;8.726;2024-03-23T10:42:20;10.77;;;2.00;;
22176;SDS011;11254;50.098;8.726;2024-03-23T10:44:48;6.57;;;1.75;;
22176;SDS011;11254;50.098;8.726;2024-03-23T10:47:16;7.45;;;2.17;;
22176;SDS011;11254;50.098;8.726;2024-03-23T10:49:47;5.95;;;1.60;;
22176;SDS011;11254;50.098;8.726;2024-03-23T10:52:18;7.95;;;2.08;;
22176;SDS011;11254;50.098;8.726;2024-03-23T10:58:58;12.18;;;2.35;;
22176;SDS011;11254;50.098;8.726;2024-03-23T11:02:54;8.68;;;1.95;;
22176;SDS011;11254;50.098;8.726;2024-03-23T11:05:28;8.60;;;1.95;;
22176;SDS011;11254;50.098;8.726;2024-03-23T11:07:55;9.45;;;2.00;;
22176;SDS011;11254;50.098;8.726;2024-03-23T11:10:26;4.97;;;1.38;;
22176;SDS011;11254;50.098;8.726;2024-03-23T11:12:54;6.63;;;1.30;;
22176;SDS011;11254;50.098;8.726;2024-03-23T11:15:24;5.53;;;1.27;;
22176;SDS011;11254;50.098;8.726;2024-03-23T11:20:37;5.05;;;1.30;;
22176;SDS011;11254;50.098;8.726;2024-03-23T11:23:04;6.20;;;2.13;;
22176;SDS011;11254;50.098;8.726;2024-03-23T11:25:33;7.53;;;1.50;;
22176;SDS011;11254;50.098;8.726;2024-03-23T11:28:09;5.20;;;1.33;;
22176;SDS011;11254;50.098;8.726;2024-03-23T11:30:42;5.55;;;1.20;;
22176;SDS011;11254;50.098;8.726;2024-03-23T11:33:09;6.03;;;1.30;;
22176;SDS011;11254;50.098;8.726;2024-03-23T11:35:37;5.55;;;1.25;;
22176;SDS011;11254;50.098;8.726;2024-03-23T11:38:06;4.72;;;1.20;;
22176;SDS011;11254;50.098;8.726;2024-03-23T11:40:39;5.28;;;1.38;;
22176;SDS011;11254;50.098;8.726;2024-03-23T11:43:10;9.30;;;1.52;;
22176;SDS011;11254;50.098;8.726;2024-03-23T11:45:38;5.15;;;1.40;;
22176;SDS011;11254;50.098;8.726;2024-03-23T11:48:07;5.20;;;1.40;;
22176;SDS011;11254;50.098;8.726;2024-03-23T11:50:36;7.60;;;1.60;;
22176;SDS011;11254;50.098;8.726;2024-03-23T11:53:07;5.28;;;1.70;;
22176;SDS011;11254;50.098;8.726;2024-03-23T11:55:45;6.30;;;1.70;;
22176;SDS011;11254;50.098;8.726;2024-03-23T11:58:12;4.70;;;1.50;;
22176;SDS011;11254;50.098;8.726;2024-03-23T12:00:49;5.85;;;1.70;;
22176;SDS011;11254;50.098;8.726;2024-03-23T12:03:18;7.72;;;1.48;;
22176;SDS011;11254;50.098;8.726;2024-03-23T12:05:48;3.63;;;1.30;;
22176;SDS011;11254;50.098;8.726;2024-03-23T12:08:19;5.97;;;1.60;;
22176;SDS011;11254;50.098;8.726;2024-03-23T12:10:49;6.28;;;1.60;;
22176;SDS011;11254;50.098;8.726;2024-03-23T12:13:21;7.53;;;1.52;;
22176;SDS011;11254;50.098;8.726;2024-03-23T12:15:50;7.45;;;1.83;;
22176;SDS011;11254;50.098;8.726;2024-03-23T12:18:24;5.78;;;1.73;;
22176;SDS011;11254;50.098;8.726;2024-03-23T12:20:54;6.22;;;2.10;;
22176;SDS011;11254;50.098;8.726;2024-03-23T12:23:21;6.97;;;2.35;;
22176;SDS011;11254;50.098;8.726;2024-03-23T12:25:49;5.75;;;1.92;;
22176;SDS011;11254;50.098;8.726;2024-03-23T12:28:16;5.90;;;1.67;;
22176;SDS011;11254;50.098;8.726;2024-03-23T12:30:44;8.60;;;1.80;;
22176;SDS011;11254;50.098;8.726;2024-03-23T12:33:20;3.75;;;1.67;;
22176;SDS011;11254;50.098;8.726;2024-03-23T12:35:50;7.13;;;2.20;;
22176;SDS011;11254;50.098;8.726;2024-03-23T12:38:17;7.20;;;2.10;;
22176;SDS011;11254;50.098;8.726;2024-03-23T12:40:48;9.95;;;2.25;;
22176;SDS011;11254;50.098;8.726;2024-03-23T12:43:14;8.93;;;2.10;;
22176;SDS011;11254;50.098;8.726;2024-03-23T12:45:45;6.10;;;1.70;;
22176;SDS011;11254;50.098;8.726;2024-03-23T12:48:12;6.80;;;1.85;;
22176;SDS011;11254;50.098;8.726;2024-03-23T12:50:43;7.60;;;1.88;;
22176;SDS011;11254;50.098;8.726;2024-03-23T12:53:11;9.15;;;2.03;;
22176;SDS011;11254;50.098;8.726;2024-03-23T12:55:52;7.93;;;2.47;;
22176;SDS011;11254;50.098;8.726;2024-03-23T12:58:19;8.15;;;2.35;;
22176;SDS011;11254;50.098;8.726;2024-03-23T13:01:08;8.75;;;2.25;;
22176;SDS011;11254;50.098;8.726;2024-03-23T13:03:37;6.00;;;2.13;;
22176;SDS011;11254;50.098;8.726;2024-03-23T13:06:06;7.18;;;2.33;;
22176;SDS011;11254;50.098;8.726;2024-03-23T13:08:35;6.30;;;2.20;;
22176;SDS011;11254;50.098;8.726;2024-03-23T13:11:06;6.35;;;2.08;;
22176;SDS011;11254;50.098;8.726;2024-03-23T13:13:34;7.35;;;1.90;;
22176;SDS011;11254;50.098;8.726;2024-03-23T13:16:08;5.50;;;2.10;;
22176;SDS011;11254;50.098;8.726;2024-03-23T13:18:38;5.88;;;1.88;;
22176;SDS011;11254;50.098;8.726;2024-03-23T13:21:23;4.00;;;1.48;;
22176;SDS011;11254;50.098;8.726;2024-03-23T13:23:54;6.45;;;1.10;;
22176;SDS011;11254;50.098;8.726;2024-03-23T13:26:21;7.07;;;1.10;;
22176;SDS011;11254;50.098;8.726;2024-03-23T13:28:48;3.70;;;1.00;;
22176;SDS011;11254;50.098;8.726;2024-03-23T13:31:16;2.95;;;0.85;;
22176;SDS011;11254;50.098;8.726;2024-03-23T13:33:43;3.83;;;0.80;;
22176;SDS011;11254;50.098;8.726;2024-03-23T13:36:11;1.95;;;0.55;;
22176;SDS011;11254;50.098;8.726;2024-03-23T13:38:37;2.00;;;0.52;;
22176;SDS011;11254;50.098;8.726;2024-03-23T13:41:06;3.25;;;0.70;;
22176;SDS011;11254;50.098;8.726;2024-03-23T13:43:34;5.22;;;0.80;;
22176;SDS011;11254;50.098;8.726;2024-03-23T13:46:02;4.10;;;0.95;;
22176;SDS011;11254;50.098;8.726;2024-03-23T13:48:28;4.00;;;0.80;;
22176;SDS011;11254;50.098;8.726;2024-03-23T13:50:59;2.22;;;0.70;;
22176;SDS011;11254;50.098;8.726;2024-03-23T13:53:26;9.68;;;4.63;;
22176;SDS011;11254;50.098;8.726;2024-03-23T13:55:53;3.28;;;0.90;;
22176;SDS011;11254;50.098;8.726;2024-03-23T13:58:21;3.03;;;0.80;;
22176;SDS011;11254;50.098;8.726;2024-03-23T14:00:51;2.42;;;0.68;;
22176;SDS011;11254;50.098;8.726;2024-03-23T14:03:18;2.63;;;0.70;;
22176;SDS011;11254;50.098;8.726;2024-03-23T14:05:45;4.88;;;1.30;;
22176;SDS011;11254;50.098;8.726;2024-03-23T14:08:13;25.45;;;11.80;;
22176;SDS011;11254;50.098;8.726;2024-03-23T14:10:40;7.03;;;2.35;;
22176;SDS011;11254;50.098;8.726;2024-03-23T14:13:08;13.55;;;6.40;;
22176;SDS011;11254;50.098;8.726;2024-03-23T14:15:36;4.75;;;2.08;;
22176;SDS011;11254;50.098;8.726;2024-03-23T14:18:04;6.80;;;4.10;;
22176;SDS011;11254;50.098;8.726;2024-03-23T14:20:31;4.13;;;2.00;;
22176;SDS011;11254;50.098;8.726;2024-03-23T14:22:58;3.28;;;1.00;;
22176;SDS011;11254;50.098;8.726;2024-03-23T14:25:25;3.45;;;1.35;;
22176;SDS011;11254;50.098;8.726;2024-03-23T14:27:54;2.78;;;0.82;;
22176;SDS011;11254;50.098;8.726;2024-03-23T14:30:21;3.83;;;1.10;;
22176;SDS011;11254;50.098;8.726;2024-03-23T14:32:50;5.90;;;3.17;;
22176;SDS011;11254;50.098;8.726;2024-03-23T14:35:16;5.65;;;2.45;;
22176;SDS011;11254;50.098;8.726;2024-03-23T14:37:44;3.10;;;1.40;;
22176;SDS011;11254;50.098;8.726;2024-03-23T14:40:12;4.68;;;1.20;;
22176;SDS011;11254;50.098;8.726;2024-03-23T14:42:40;5.72;;;3.58;;
22176;SDS011;11254;50.098;8.726;2024-03-23T14:45:07;3.40;;;1.60;;
22176;SDS011;11254;50.098;8.726;2024-03-23T14:47:34;3.78;;;1.25;;
22176;SDS011;11254;50.098;8.726;2024-03-23T14:50:03;4.00;;;1.25;;
22176;SDS011;11254;50.098;8.726;2024-03-23T14:52:33;7.22;;;4.30;;
22176;SDS011;11254;50.098;8.726;2024-03-23T14:55:00;2.67;;;1.00;;
22176;SDS011;11254;50.098;8.726;2024-03-23T14:57:28;2.13;;;0.80;;
22176;SDS011;11254;50.098;8.726;2024-03-23T14:59:55;2.92;;;0.90;;
22176;SDS011;11254;50.098;8.726;2024-03-23T15:02:22;3.92;;;0.88;;
22176;SDS011;11254;50.098;8.726;2024-03-23T15:04:49;2.58;;;0.60;;
22176;SDS011;11254;50.098;8.726;2024-03-23T15:07:18;4.97;;;2.35;;
22176;SDS011;11254;50.098;8.726;2024-03-23T15:09:45;2.60;;;1.08;;
22176;SDS011;11254;50.098;8.726;2024-03-23T15:12:13;3.80;;;1.00;;
22176;SDS011;11254;50.098;8.726;2024-03-23T15:14:39;4.00;;;0.90;;
22176;SDS011;11254;50.098;8.726;2024-03-23T15:17:07;5.32;;;2.63;;
22176;SDS011;11254;50.098;8.726;2024-03-23T15:19:34;5.47;;;2.35;;
22176;SDS011;11254;50.098;8.726;2024-03-23T15:22:02;6.25;;;1.98;;
22176;SDS011;11254;50.098;8.726;2024-03-23T15:24:30;4.15;;;1.88;;
22176;SDS011;11254;50.098;8.726;2024-03-23T15:26:59;3.00;;;1.20;;
22176;SDS011;11254;50.098;8.726;2024-03-23T15:29:26;3.75;;;1.00;;
22176;SDS011;11254;50.098;8.726;2024-03-23T15:31:54;2.85;;;0.90;;
22176;SDS011;11254;50.098;8.726;2024-03-23T15:34:21;2.72;;;1.00;;
22176;SDS011;11254;50.098;8.726;2024-03-23T15:36:48;4.40;;;1.13;;
22176;SDS011;11254;50.098;8.726;2024-03-23T15:39:16;3.40;;;1.00;;
22176;SDS011;11254;50.098;8.726;2024-03-23T15:41:46;4.47;;;1.38;;
22176;SDS011;11254;50.098;8.726;2024-03-23T15:44:13;4.82;;;1.30;;
22176;SDS011;11254;50.098;8.726;2024-03-23T15:46:41;4.10;;;1.50;;
22176;SDS011;11254;50.098;8.726;2024-03-23T16:14:35;2.63;;;0.90;;
22176;SDS011;11254;50.098;8.726;2024-03-23T16:17:03;2.10;;;0.70;;
22176;SDS011;11254;50.098;8.726;2024-03-23T16:19:29;2.85;;;0.80;;
22176;SDS011;11254;50.098;8.726;2024-03-23T16:21:58;3.80;;;0.88;;
22176;SDS011;11254;50.098;8.726;2024-03-23T16:24:24;5.80;;;1.17;;
22176;SDS011;11254;50.098;8.726;2024-03-23T16:26:52;7.22;;;1.48;;
22176;SDS011;11254;50.098;8.726;2024-03-23T16:29:18;7.93;;;3.80;;
22176;SDS011;11254;50.098;8.726;2024-03-23T16:31:47;5.85;;;1.92;;
22176;SDS011;11254;50.098;8.726;2024-03-23T16:34:14;4.28;;;1.50;;
22176;SDS011;11254;50.098;8.726;2024-03-23T16:36:41;9.88;;;5.53;;
22176;SDS011;11254;50.098;8.726;2024-03-23T16:39:08;5.53;;;2.00;;
22176;SDS011;11254;50.098;8.726;2024-03-23T16:41:36;3.83;;;1.60;;
22176;SDS011;11254;50.098;8.726;2024-03-23T16:44:03;3.88;;;0.80;;
22176;SDS011;11254;50.098;8.726;2024-03-23T16:46:31;11.70;;;5.82;;
22176;SDS011;11254;50.098;8.726;2024-03-23T16:48:59;7.97;;;2.10;;
22176;SDS011;11254;50.098;8.726;2024-03-23T16:51:26;12.82;;;8.95;;
22176;SDS011;11254;50.098;8.726;2024-03-23T16:53:53;5.22;;;2.00;;
22176;SDS011;11254;50.098;8.726;2024-03-23T16:56:24;6.03;;;1.20;;
22176;SDS011;11254;50.098;8.726;2024-03-23T16:58:51;12.65;;;6.60;;
22176;SDS011;11254;50.098;8.726;2024-03-23T17:01:19;5.03;;;2.42;;
22176;SDS011;11254;50.098;8.726;2024-03-23T17:03:46;5.10;;;2.92;;
22176;SDS011;11254;50.098;8.726;2024-03-23T17:06:16;5.55;;;1.05;;
22176;SDS011;11254;50.098;8.726;2024-03-23T17:08:44;4.93;;;1.05;;
22176;SDS011;11254;50.098;8.726;2024-03-23T17:11:12;3.45;;;0.98;;
22176;SDS011;11254;50.098;8.726;2024-03-23T17:13:39;3.85;;;1.60;;
22176;SDS011;11254;50.098;8.726;2024-03-23T17:16:06;2.90;;;0.80;;
22176;SDS011;11254;50.098;8.726;2024-03-23T17:18:33;7.57;;;3.17;;
22176;SDS011;11254;50.098;8.726;2024-03-23T17:21:01;5.88;;;2.50;;
22176;SDS011;11254;50.098;8.726;2024-03-23T17:23:30;4.07;;;1.50;;
22176;SDS011;11254;50.098;8.726;2024-03-23T17:25:58;4.07;;;1.33;;
22176;SDS011;11254;50.098;8.726;2024-03-23T17:28:26;6.22;;;1.35;;
22176;SDS011;11254;50.098;8.726;2024-03-23T17:30:54;6.07;;;1.50;;
22176;SDS011;11254;50.098;8.726;2024-03-23T17:33:20;4.07;;;1.30;;
22176;SDS011;11254;50.098;8.726;2024-03-23T17:35:49;4.93;;;1.40;;
22176;SDS011;11254;50.098;8.726;2024-03-23T17:38:16;4.30;;;1.38;;
22176;SDS011;11254;50.098;8.726;2024-03-23T17:40:46;4.68;;;1.58;;
22176;SDS011;11254;50.098;8.726;2024-03-23T17:43:13;4.95;;;1.60;;
22176;SDS011;11254;50.098;8.726;2024-03-23T17:45:40;4.28;;;1.55;;
22176;SDS011;11254;50.098;8.726;2024-03-23T17:48:07;9.85;;;3.20;;
22176;SDS011;11254;50.098;8.726;2024-03-23T17:50:34;16.17;;;4.30;;
22176;SDS011;11254;50.098;8.726;2024-03-23T17:53:01;14.73;;;4.32;;
22176;SDS011;11254;50.098;8.726;2024-03-23T17:55:28;8.10;;;2.25;;
22176;SDS011;11254;50.098;8.726;2024-03-23T17:57:57;5.10;;;1.27;;
22176;SDS011;11254;50.098;8.726;2024-03-23T18:00:26;2.90;;;0.80;;
22176;SDS011;11254;50.098;8.726;2024-03-23T18:02:52;2.63;;;0.77;;
22176;SDS011;11254;50.098;8.726;2024-03-23T18:05:20;2.40;;;0.68;;
22176;SDS011;11254;50.098;8.726;2024-03-23T18:07:47;2.28;;;0.70;;
22176;SDS011;11254;50.098;8.726;2024-03-23T18:10:16;4.15;;;1.00;;
22176;SDS011;11254;50.098;8.726;2024-03-23T18:12:51;3.10;;;1.05;;
22176;SDS011;11254;50.098;8.726;2024-03-23T18:15:22;1.90;;;0.70;;
22176;SDS011;11254;50.098;8.726;2024-03-23T18:17:49;1.25;;;0.52;;
22176;SDS011;11254;50.098;8.726;2024-03-23T18:20:17;3.60;;;1.00;;
22176;SDS011;11254;50.098;8.726;2024-03-23T18:22:44;4.20;;;1.45;;
22176;SDS011;11254;50.098;8.726;2024-03-23T18:25:12;4.97;;;1.23;;
22176;SDS011;11254;50.098;8.726;2024-03-23T18:27:39;4.13;;;1.38;;
22176;SDS011;11254;50.098;8.726;2024-03-23T18:30:06;4.22;;;1.60;;
22176;SDS011;11254;50.098;8.726;2024-03-23T18:32:35;3.10;;;1.17;;
22176;SDS011;11254;50.098;8.726;2024-03-23T18:35:03;3.53;;;1.08;;
22176;SDS011;11254;50.098;8.726;2024-03-23T18:37:29;4.15;;;1.30;;
22176;SDS011;11254;50.098;8.726;2024-03-23T18:39:57;4.25;;;1.48;;
22176;SDS011;11254;50.098;8.726;2024-03-23T18:42:23;3.65;;;1.25;;